Dan Fighter — OVUE2 — position and weather

sailwx.info

Track history (hours):
 
Tides and Currents Weather Stations Pressure Air Temp Water Temp Dewpoint Dewpoint Depression Visibility Wind Speed Wind Dir Waves Ship Positions

Dan Fighter

Last reported at 2014-Nov-28 23:33 UTC. Time now 2014-Nov-29 00:02 UTC.
Position N 38°29' E 013°33'.

Length 64 m; draft 3.1 m.

Type: Cargo ship. MMSI: 220386978.

Date/timePositionNaut miles runAvg speedWind from/ knotsBaromVisibWave heightAir tempDewpointWater temp
2014-Nov-28 23:33N 38°29' E 013°33'7 7.0
2014-Nov-28 22:33N 38°30' E 013°25'7 7.0
2014-Nov-28 21:34N 38°31' E 013°16'7 6.9
2014-Nov-28 20:32N 38°31' E 013°07'7 6.9
2014-Nov-28 19:33N 38°31' E 012°58'7 6.7
2014-Nov-28 18:33N 38°30' E 012°50'7 6.4
2014-Nov-28 17:33N 38°31' E 012°41'161 6.2
2014-Nov-27 15:32N 39°04' E 009°19'7 7.6
2014-Nov-27 14:33N 39°08' E 009°11'7 6.7
2014-Nov-27 13:33N 39°12' E 009°05'1 0.8
2014-Nov-27 12:21N 39°13' E 009°04'0 0.0
2014-Nov-27 11:33N 39°13' E 009°04'0 0.0
2014-Nov-27 10:30N 39°13' E 009°04'0 0.0
2014-Nov-27 09:33N 39°13' E 009°04'0 0.0
2014-Nov-27 08:33N 39°13' E 009°04'0 0.0
2014-Nov-27 07:33N 39°13' E 009°04'0 0.0
2014-Nov-27 06:30N 39°13' E 009°04'0 0.0
2014-Nov-27 05:33N 39°13' E 009°04'0 0.0
2014-Nov-27 04:27N 39°13' E 009°04'0 0.0
2014-Nov-27 03:27N 39°13' E 009°04'0 0.0
2014-Nov-27 02:33N 39°13' E 009°04'0 0.0
2014-Nov-27 01:33N 39°13' E 009°04'0 0.0
2014-Nov-27 00:27N 39°13' E 009°04'0 0.0
2014-Nov-26 23:30N 39°13' E 009°04'0 0.0
2014-Nov-26 22:33N 39°13' E 009°04'0 0.0
2014-Nov-26 21:27N 39°13' E 009°04'0 0.0
2014-Nov-26 20:30N 39°13' E 009°04'0 0.0
2014-Nov-26 19:33N 39°13' E 009°04'0 0.0
2014-Nov-26 18:33N 39°13' E 009°04'0 0.0
2014-Nov-26 17:30N 39°13' E 009°04'0 0.0
2014-Nov-26 16:33N 39°13' E 009°04'0 0.0
2014-Nov-26 15:33N 39°13' E 009°04'0 0.0
2014-Nov-26 14:30N 39°13' E 009°04'0 0.0
2014-Nov-26 13:33N 39°13' E 009°04'0 0.0
2014-Nov-26 12:33N 39°13' E 009°04'0 0.0
2014-Nov-26 11:27N 39°13' E 009°04'0 0.0
2014-Nov-26 10:33N 39°13' E 009°04'1 1.3
2014-Nov-26 09:33N 39°12' E 009°05'8 8.3
2014-Nov-26 08:33N 39°07' E 009°14'6 5.7
2014-Nov-26 07:33N 39°04' E 009°20'158 5.8
2014-Nov-25 04:30N 38°39' E 012°41'5 5.7
2014-Nov-25 03:33N 38°38' E 012°48'9 5.8
2014-Nov-25 02:04N 38°37' E 012°58'5 6.0
2014-Nov-25 01:12N 38°36' E 013°05'10 5.8
2014-Nov-24 23:28N 38°34' E 013°18'6 5.9
2014-Nov-24 22:32N 38°33' E 013°24'91 5.7
2014-Nov-24 06:30N 38°20' E 015°20'  
Track history (hours):
 
Tides and Currents Weather Stations Pressure Air Temp Water Temp Dewpoint Dewpoint Depression Visibility Wind Speed Wind Dir Waves Ship Positions

Dan Fighter

Last reported at 2014-Nov-28 23:33 UTC. Time now 2014-Nov-29 00:02 UTC.
Position N 38°29' E 013°33'.

Length 64 m; draft 3.1 m.

Type: Cargo ship. MMSI: 220386978.

Date/timePositionNaut miles runAvg speedWind from/ knotsBaromVisibWave heightAir tempDewpointWater temp
2014-Nov-28 23:33N 38°29' E 013°33'7 7.0
2014-Nov-28 22:33N 38°30' E 013°25'7 7.0
2014-Nov-28 21:34N 38°31' E 013°16'7 6.9
2014-Nov-28 20:32N 38°31' E 013°07'7 6.9
2014-Nov-28 19:33N 38°31' E 012°58'7 6.7
2014-Nov-28 18:33N 38°30' E 012°50'7 6.4
2014-Nov-28 17:33N 38°31' E 012°41'161 6.2
2014-Nov-27 15:32N 39°04' E 009°19'7 7.6
2014-Nov-27 14:33N 39°08' E 009°11'7 6.7
2014-Nov-27 13:33N 39°12' E 009°05'1 0.8
2014-Nov-27 12:21N 39°13' E 009°04'0 0.0
2014-Nov-27 11:33N 39°13' E 009°04'0 0.0
2014-Nov-27 10:30N 39°13' E 009°04'0 0.0
2014-Nov-27 09:33N 39°13' E 009°04'0 0.0
2014-Nov-27 08:33N 39°13' E 009°04'0 0.0
2014-Nov-27 07:33N 39°13' E 009°04'0 0.0
2014-Nov-27 06:30N 39°13' E 009°04'0 0.0
2014-Nov-27 05:33N 39°13' E 009°04'0 0.0
2014-Nov-27 04:27N 39°13' E 009°04'0 0.0
2014-Nov-27 03:27N 39°13' E 009°04'0 0.0
2014-Nov-27 02:33N 39°13' E 009°04'0 0.0
2014-Nov-27 01:33N 39°13' E 009°04'0 0.0
2014-Nov-27 00:27N 39°13' E 009°04'0 0.0
2014-Nov-26 23:30N 39°13' E 009°04'0 0.0
2014-Nov-26 22:33N 39°13' E 009°04'0 0.0
2014-Nov-26 21:27N 39°13' E 009°04'0 0.0
2014-Nov-26 20:30N 39°13' E 009°04'0 0.0
2014-Nov-26 19:33N 39°13' E 009°04'0 0.0
2014-Nov-26 18:33N 39°13' E 009°04'0 0.0
2014-Nov-26 17:30N 39°13' E 009°04'0 0.0
2014-Nov-26 16:33N 39°13' E 009°04'0 0.0
2014-Nov-26 15:33N 39°13' E 009°04'0 0.0
2014-Nov-26 14:30N 39°13' E 009°04'0 0.0
2014-Nov-26 13:33N 39°13' E 009°04'0 0.0
2014-Nov-26 12:33N 39°13' E 009°04'0 0.0
2014-Nov-26 11:27N 39°13' E 009°04'0 0.0
2014-Nov-26 10:33N 39°13' E 009°04'1 1.3
2014-Nov-26 09:33N 39°12' E 009°05'8 8.3
2014-Nov-26 08:33N 39°07' E 009°14'6 5.7
2014-Nov-26 07:33N 39°04' E 009°20'158 5.8
2014-Nov-25 04:30N 38°39' E 012°41'5 5.7
2014-Nov-25 03:33N 38°38' E 012°48'9 5.8
2014-Nov-25 02:04N 38°37' E 012°58'5 6.0
2014-Nov-25 01:12N 38°36' E 013°05'10 5.8
2014-Nov-24 23:28N 38°34' E 013°18'6 5.9
2014-Nov-24 22:32N 38°33' E 013°24'91 5.7
2014-Nov-24 06:30N 38°20' E 015°20'  

Dump ship's entire track history